createdAt,value
2018-01-23T00:01:29.689Z,39.83
2018-01-23T00:03:58.702Z,45.45
2018-01-23T00:06:27.715Z,29.63
2018-01-23T00:08:57.442Z,27.42
2018-01-23T00:11:26.516Z,25.25
2018-01-23T00:13:56.324Z,35.08
2018-01-23T00:16:26.104Z,36.50
2018-01-23T00:18:55.172Z,35.03
2018-01-23T00:21:24.170Z,34.42
2018-01-23T00:23:53.293Z,44.00
2018-01-23T00:26:22.233Z,36.50
2018-01-23T00:28:51.288Z,40.45
2018-01-23T00:31:20.688Z,44.65
2018-01-23T00:33:49.688Z,43.40
2018-01-23T00:36:19.473Z,44.45
2018-01-23T00:38:48.504Z,36.38
2018-01-23T00:41:20.299Z,38.65
2018-01-23T00:43:49.297Z,43.47
2018-01-23T00:46:18.334Z,39.83
2018-01-23T00:48:47.333Z,47.47
2018-01-23T00:51:17.172Z,44.25
2018-01-23T00:53:46.920Z,40.80
2018-01-23T00:56:15.889Z,44.13
2018-01-23T00:58:44.909Z,46.80
2018-01-23T01:01:13.902Z,41.80
2018-01-23T01:03:42.869Z,49.10
2018-01-23T01:06:12.100Z,51.22
2018-01-23T01:08:41.093Z,47.88
2018-01-23T01:11:10.166Z,45.72
2018-01-23T01:13:39.281Z,42.47
2018-01-23T01:16:08.271Z,43.30
2018-01-23T01:18:37.262Z,51.80
2018-01-23T01:21:06.305Z,44.67
2018-01-23T01:23:36.041Z,48.25
2018-01-23T01:26:05.058Z,35.30
2018-01-23T01:28:34.100Z,37.70
2018-01-23T01:31:03.881Z,40.53
2018-01-23T01:33:32.884Z,39.08
2018-01-23T01:36:01.902Z,38.80
2018-01-23T01:38:30.868Z,39.08
2018-01-23T01:40:59.809Z,43.05
2018-01-23T01:43:28.812Z,38.05
2018-01-23T01:45:57.769Z,35.35
2018-01-23T01:48:36.865Z,41.45
2018-01-23T01:51:05.909Z,36.58
2018-01-23T01:53:34.902Z,58.50
2018-01-23T01:56:03.878Z,47.88
2018-01-23T01:58:33.699Z,37.10
2018-01-23T02:01:02.720Z,32.67
2018-01-23T02:03:31.715Z,41.00
2018-01-23T02:06:00.753Z,38.05
2018-01-23T02:08:31.362Z,47.85
2018-01-23T02:11:00.497Z,40.83
2018-01-23T02:13:29.453Z,40.42
2018-01-23T02:15:58.941Z,43.53
2018-01-23T02:18:27.929Z,42.33
2018-01-23T02:20:56.924Z,33.70
2018-01-23T02:23:26.735Z,43.30
2018-01-23T02:25:55.765Z,35.17
2018-01-23T02:28:24.758Z,37.97
2018-01-23T02:30:54.568Z,38.50
2018-01-23T02:33:23.574Z,38.75
2018-01-23T02:35:53.298Z,41.47
2018-01-23T02:38:22.277Z,41.10
2018-01-23T02:40:52.028Z,34.75
2018-01-23T02:43:22.462Z,39.75
2018-01-23T02:45:51.456Z,37.75
2018-01-23T02:48:20.428Z,33.55
2018-01-23T02:50:49.356Z,50.53
2018-01-23T02:53:18.355Z,41.30
2018-01-23T02:55:47.422Z,42.20
2018-01-23T02:58:16.443Z,36.72
2018-01-23T03:00:45.479Z,39.92
2018-01-23T03:03:14.516Z,39.63
2018-01-23T03:05:43.498Z,45.12
2018-01-23T03:08:12.442Z,36.10
2018-01-23T03:10:42.183Z,43.58
2018-01-23T03:13:11.163Z,45.75
2018-01-23T03:15:40.175Z,32.92
2018-01-23T03:18:09.206Z,47.85
2018-01-23T03:20:38.607Z,43.87
2018-01-23T03:23:07.653Z,38.40
2018-01-23T03:25:36.737Z,41.10
2018-01-23T03:28:08.605Z,33.00
2018-01-23T03:30:38.333Z,41.65
2018-01-23T03:33:07.379Z,41.20
2018-01-23T03:35:36.388Z,37.42
2018-01-23T03:39:09.105Z,36.63
2018-01-23T03:41:38.071Z,41.15
2018-01-23T03:44:07.816Z,38.20
2018-01-23T03:46:42.053Z,30.37
2018-01-23T03:49:11.038Z,34.60
2018-01-23T03:51:39.988Z,38.38
2018-01-23T03:54:09.036Z,42.17
2018-01-23T03:56:37.997Z,42.30
2018-01-23T03:59:07.121Z,34.10
2018-01-23T04:01:36.163Z,37.00
2018-01-23T04:04:05.153Z,36.15
2018-01-23T04:06:34.904Z,42.50
2018-01-23T04:09:04.009Z,34.85
2018-01-23T04:11:33.273Z,42.72
2018-01-23T04:14:02.262Z,38.10
2018-01-23T04:16:31.248Z,37.55
2018-01-23T04:19:00.218Z,32.65
2018-01-23T04:21:29.962Z,36.03
2018-01-23T04:23:58.944Z,39.30
2018-01-23T04:26:27.885Z,35.03
2018-01-23T04:28:56.959Z,39.97
2018-01-23T04:31:26.128Z,42.03
2018-01-23T04:33:55.201Z,39.58
2018-01-23T04:36:24.967Z,41.17
2018-01-23T04:38:54.065Z,46.20
2018-01-23T04:41:25.232Z,45.42
2018-01-23T04:43:54.997Z,40.80
2018-01-23T04:46:24.006Z,39.88
2018-01-23T04:48:53.012Z,45.05
2018-01-23T04:51:22.053Z,32.05
2018-01-23T04:53:51.054Z,40.00
2018-01-23T04:56:20.023Z,45.00
2018-01-23T04:58:49.039Z,40.70
2018-01-23T05:01:18.784Z,46.50
2018-01-23T05:03:47.850Z,33.95
2018-01-23T05:06:23.588Z,42.88
2018-01-23T05:08:52.622Z,39.40
2018-01-23T05:11:21.613Z,36.78
2018-01-23T05:14:21.399Z,36.08
2018-01-23T05:16:50.382Z,36.75
2018-01-23T05:19:20.181Z,42.13
2018-01-23T05:21:49.950Z,44.50
2018-01-23T05:24:18.968Z,50.05
2018-01-23T05:26:49.362Z,48.33
2018-01-23T05:29:18.458Z,42.88
2018-01-23T05:31:50.688Z,47.25
2018-01-23T05:34:20.456Z,45.15
2018-01-23T05:36:49.761Z,51.13
2018-01-23T05:39:18.775Z,48.85
2018-01-23T05:41:49.045Z,40.22
2018-01-23T05:44:18.155Z,48.60
2018-01-23T05:46:47.317Z,40.75
2018-01-23T05:49:16.308Z,52.03
2018-01-23T05:51:46.124Z,56.55
2018-01-23T05:54:15.172Z,38.63
2018-01-23T05:56:44.228Z,51.20
2018-01-23T05:59:13.269Z,40.47
2018-01-23T06:01:42.814Z,41.13
2018-01-23T06:04:12.588Z,51.10
2018-01-23T06:06:41.672Z,39.92
2018-01-23T06:09:10.670Z,48.58
2018-01-23T06:11:39.692Z,38.58
2018-01-23T06:14:09.828Z,41.47
2018-01-23T06:16:38.809Z,38.95
2018-01-23T06:19:08.577Z,38.72
2018-01-23T06:21:37.698Z,41.53
2018-01-23T06:24:07.656Z,49.15
2018-01-23T06:26:36.717Z,52.78
2018-01-23T06:29:06.617Z,53.15
2018-01-23T06:31:35.826Z,37.67
2018-01-23T06:34:05.902Z,40.15
2018-01-23T06:36:34.916Z,40.00
2018-01-23T06:39:13.709Z,53.00
2018-01-23T06:41:42.733Z,42.28
2018-01-23T06:44:12.306Z,46.78
2018-01-23T06:46:42.702Z,38.78
2018-01-23T06:49:12.472Z,35.85
2018-01-23T06:51:41.554Z,35.60
2018-01-23T06:54:10.627Z,31.52
2018-01-23T06:56:39.621Z,33.28
2018-01-23T06:59:08.691Z,33.15
2018-01-23T07:02:40.324Z,38.08
2018-01-23T07:05:10.165Z,33.17
2018-01-23T07:07:44.641Z,39.97
2018-01-23T07:10:13.737Z,35.08
2018-01-23T07:12:49.902Z,33.00
2018-01-23T07:15:19.793Z,32.33
2018-01-23T07:17:52.440Z,29.27
2018-01-23T07:20:21.466Z,38.42
2018-01-23T07:22:52.240Z,35.00
2018-01-23T07:25:22.101Z,36.00
2018-01-23T07:27:51.885Z,36.33
2018-01-23T07:30:21.041Z,32.85
2018-01-23T07:32:50.160Z,33.08
2018-01-23T07:35:19.981Z,33.92
2018-01-23T07:37:50.003Z,30.67
2018-01-23T07:40:19.968Z,37.67
2018-01-23T07:42:50.738Z,35.00
2018-01-23T07:45:20.703Z,33.72
2018-01-23T07:47:50.119Z,35.80
2018-01-23T07:50:19.253Z,32.95
2018-01-23T07:52:49.104Z,36.88
2018-01-23T07:55:18.179Z,36.35
2018-01-23T07:57:48.113Z,35.25
2018-01-23T08:00:20.864Z,41.00
2018-01-23T08:02:50.657Z,35.05
2018-01-23T08:05:19.661Z,35.20
2018-01-23T08:07:49.428Z,35.42
2018-01-23T08:10:18.556Z,33.00
2018-01-23T08:12:47.702Z,31.02
2018-01-23T08:15:17.019Z,32.15
2018-01-23T08:17:46.135Z,31.92
2018-01-23T08:20:15.161Z,34.85
2018-01-23T08:22:44.970Z,30.42
2018-01-23T08:25:14.820Z,33.80
2018-01-23T08:27:43.843Z,31.10
2018-01-23T08:30:13.643Z,31.62
2018-01-23T08:32:42.707Z,30.42
2018-01-23T08:35:11.796Z,30.73
2018-01-23T08:37:42.623Z,35.05
2018-01-23T08:40:15.356Z,32.25
2018-01-23T08:42:44.438Z,30.52
2018-01-23T08:45:14.233Z,27.80
2018-01-23T08:47:44.123Z,28.17
2018-01-23T08:50:13.119Z,30.00
2018-01-23T08:52:43.192Z,29.20
2018-01-23T08:55:12.302Z,30.50
2018-01-23T08:57:41.638Z,24.95
2018-01-23T09:00:10.875Z,27.27
2018-01-23T09:02:40.713Z,28.02
2018-01-23T09:05:09.870Z,41.13
2018-01-23T09:07:38.992Z,32.20
2018-01-23T09:10:08.890Z,29.95
2018-01-23T09:12:38.899Z,26.58
2018-01-23T09:15:07.991Z,25.00
2018-01-23T09:17:36.998Z,24.35
2018-01-23T09:20:06.068Z,25.65
2018-01-23T09:22:35.104Z,24.77
2018-01-23T09:25:04.228Z,29.73
2018-01-23T09:27:34.030Z,23.25
2018-01-23T09:30:03.260Z,24.60
2018-01-23T09:32:32.393Z,28.83
2018-01-23T09:35:32.457Z,29.30
2018-01-23T09:38:02.376Z,23.62
2018-01-23T09:40:32.177Z,24.33
2018-01-23T09:43:02.047Z,22.80
2018-01-23T09:45:31.264Z,25.37
2018-01-23T09:48:14.779Z,22.62
2018-01-23T09:50:43.835Z,24.75
2018-01-23T09:53:13.622Z,26.65
2018-01-23T09:55:42.711Z,25.48
2018-01-23T09:58:11.730Z,22.62
2018-01-23T10:00:56.054Z,23.48
2018-01-23T10:03:25.926Z,23.05
2018-01-23T10:05:55.068Z,20.37
2018-01-23T10:08:24.152Z,20.77
2018-01-23T10:10:53.129Z,20.83
2018-01-23T10:13:22.141Z,26.45
2018-01-23T10:15:51.316Z,25.30
2018-01-23T10:18:23.460Z,20.37
2018-01-23T10:20:53.362Z,22.30
2018-01-23T10:23:23.277Z,21.60
2018-01-23T10:25:52.357Z,23.52
2018-01-23T10:28:27.859Z,26.73
2018-01-23T10:31:02.375Z,22.20
2018-01-23T10:33:31.426Z,21.20
2018-01-23T10:36:01.232Z,21.87
2018-01-23T10:38:31.055Z,24.23
2018-01-23T10:41:00.081Z,24.12
2018-01-23T10:43:29.153Z,19.08
2018-01-23T10:45:58.214Z,23.40
2018-01-23T10:48:28.223Z,24.98
2018-01-23T10:50:57.387Z,19.85
2018-01-23T10:53:26.405Z,21.25
2018-01-23T10:55:55.457Z,25.42
2018-01-23T10:58:24.563Z,18.73
2018-01-23T11:00:58.565Z,22.30
2018-01-23T11:03:27.693Z,18.25
2018-01-23T11:05:56.804Z,29.42
2018-01-23T11:08:25.816Z,18.35
2018-01-23T11:10:55.566Z,20.95
2018-01-23T11:13:24.594Z,23.62
2018-01-23T11:15:53.609Z,20.85
2018-01-23T11:18:24.028Z,20.80
2018-01-23T11:20:53.094Z,22.33
2018-01-23T11:23:22.163Z,23.38
2018-01-23T11:25:52.021Z,26.98
2018-01-23T11:28:21.129Z,21.42
2018-01-23T11:30:50.186Z,19.23
2018-01-23T11:33:19.426Z,21.17
2018-01-23T11:35:49.311Z,19.37
2018-01-23T11:38:19.166Z,21.58
2018-01-23T11:40:51.936Z,21.35
2018-01-23T11:43:21.728Z,20.05
2018-01-23T11:45:50.773Z,21.08
2018-01-23T11:48:19.845Z,23.12
2018-01-23T11:50:49.011Z,19.83
2018-01-23T11:53:18.105Z,18.95
2018-01-23T11:55:47.958Z,20.37
2018-01-23T11:58:17.065Z,23.10
2018-01-23T12:00:46.139Z,19.85
2018-01-23T12:03:16.069Z,18.75
2018-01-23T12:05:45.119Z,17.42
2018-01-23T12:08:15.075Z,21.27
2018-01-23T12:10:45.040Z,29.08
2018-01-23T12:13:14.062Z,26.77
2018-01-23T12:15:43.976Z,19.92
2018-01-23T12:18:14.159Z,21.90
2018-01-23T12:20:43.295Z,24.90
2018-01-23T12:23:13.461Z,23.33
2018-01-23T12:25:42.505Z,21.80
2018-01-23T12:28:13.613Z,24.65
2018-01-23T12:30:42.764Z,32.30
2018-01-23T12:33:11.812Z,22.05
2018-01-23T12:35:41.973Z,24.02
2018-01-23T12:38:11.779Z,27.80
2018-01-23T12:40:41.636Z,22.23
2018-01-23T12:43:11.689Z,25.00
2018-01-23T12:45:41.568Z,23.45
2018-01-23T12:48:11.484Z,25.83
2018-01-23T12:50:41.285Z,28.15
2018-01-23T12:53:11.197Z,24.27
